createdAt,value
2022-09-23T00:02:21.955Z,66.72
2022-09-23T00:07:24.125Z,66.51
2022-09-23T00:12:26.206Z,66.55
2022-09-23T00:17:28.420Z,66.60
2022-09-23T00:22:30.457Z,66.56
2022-09-23T00:27:34.282Z,66.62
2022-09-23T00:32:38.205Z,66.75
2022-09-23T00:37:40.214Z,66.61
2022-09-23T00:42:52.273Z,66.83
2022-09-23T00:47:56.312Z,66.78
2022-09-23T00:53:01.320Z,66.95
2022-09-23T00:58:06.187Z,66.81
2022-09-23T01:03:09.653Z,66.79
2022-09-23T01:08:14.753Z,66.46
2022-09-23T01:13:28.739Z,66.70
2022-09-23T01:18:50.384Z,66.83
2022-09-23T01:24:24.742Z,66.84
2022-09-23T01:29:48.458Z,66.65
2022-09-23T01:35:02.785Z,66.87
2022-09-23T01:40:21.098Z,66.79
2022-09-23T01:45:26.097Z,66.89
2022-09-23T01:50:55.426Z,66.67
2022-09-23T01:56:03.097Z,66.89
2022-09-23T02:01:09.013Z,66.84
2022-09-23T02:06:27.738Z,66.82
2022-09-23T02:11:36.510Z,66.79
2022-09-23T02:16:59.622Z,67.01
2022-09-23T02:22:07.076Z,67.05
2022-09-23T02:27:35.564Z,67.05
2022-09-23T02:32:55.235Z,67.09
2022-09-23T02:38:12.322Z,66.99
2022-09-23T02:43:21.425Z,66.83
2022-09-23T02:48:29.555Z,66.93
2022-09-23T02:53:35.166Z,66.99
2022-09-23T02:58:37.260Z,67.01
2022-09-23T03:03:56.066Z,66.62
2022-09-23T03:09:03.635Z,66.87
2022-09-23T03:14:26.743Z,66.99
2022-09-23T03:19:55.482Z,66.72
2022-09-23T03:25:03.554Z,66.83
2022-09-23T03:30:07.644Z,66.86
2022-09-23T03:35:10.663Z,66.79
2022-09-23T03:40:15.657Z,67.02
2022-09-23T03:45:22.555Z,66.86
2022-09-23T03:50:25.037Z,66.88
2022-09-23T03:55:27.209Z,67.00
2022-09-23T04:00:29.227Z,67.03
2022-09-23T04:05:31.423Z,66.86
2022-09-23T04:10:33.526Z,67.04
2022-09-23T04:15:35.477Z,66.81
2022-09-23T04:20:39.561Z,66.69
2022-09-23T04:25:46.397Z,66.91
2022-09-23T04:30:49.335Z,66.75
2022-09-23T04:35:52.341Z,66.70
2022-09-23T04:40:54.948Z,66.63
2022-09-23T04:46:06.325Z,66.90
2022-09-23T04:51:16.747Z,67.01
2022-09-23T04:56:20.141Z,66.71
2022-09-23T05:01:25.516Z,66.87
2022-09-23T05:06:27.599Z,66.87
2022-09-23T05:11:31.776Z,66.98
2022-09-23T05:16:33.980Z,66.74
2022-09-23T05:21:37.216Z,66.68
2022-09-23T05:26:39.936Z,66.81
2022-09-23T05:31:41.933Z,66.95
2022-09-23T05:36:43.909Z,66.56
2022-09-23T05:41:45.995Z,66.90
2022-09-23T05:46:48.180Z,66.80
2022-09-23T05:51:50.261Z,66.94
2022-09-23T05:56:52.593Z,66.76
2022-09-23T06:01:56.585Z,66.73
2022-09-23T06:07:03.072Z,66.69
2022-09-23T06:12:06.578Z,66.69
2022-09-23T06:17:08.558Z,66.74
2022-09-23T06:22:11.377Z,66.59
2022-09-23T06:27:13.641Z,66.84
2022-09-23T06:32:16.489Z,66.78
2022-09-23T06:37:20.703Z,66.77
2022-09-23T06:42:22.932Z,66.73
2022-09-23T06:47:25.010Z,66.66
2022-09-23T06:52:27.073Z,67.02
2022-09-23T06:57:33.333Z,66.75
2022-09-23T07:02:35.949Z,67.00
2022-09-23T07:07:38.584Z,66.84
2022-09-23T07:12:40.699Z,66.63
2022-09-23T07:17:43.346Z,66.86
2022-09-23T07:22:50.165Z,66.64
2022-09-23T07:27:52.241Z,66.88
2022-09-23T07:32:54.223Z,66.77
2022-09-23T07:37:56.241Z,67.15
2022-09-23T07:42:58.317Z,66.80
2022-09-23T07:48:01.872Z,66.94
2022-09-23T07:53:04.442Z,67.07
2022-09-23T07:58:06.552Z,67.19
2022-09-23T08:03:09.802Z,66.98
2022-09-23T08:08:11.855Z,67.05
2022-09-23T08:13:13.817Z,67.03
2022-09-23T08:18:15.807Z,66.90
2022-09-23T08:23:18.686Z,66.89
2022-09-23T08:28:20.719Z,66.88
2022-09-23T08:33:24.033Z,66.88
2022-09-23T08:38:25.938Z,66.80
2022-09-23T08:43:31.687Z,66.84
2022-09-23T08:48:43.624Z,66.94
2022-09-23T08:53:47.039Z,66.86
2022-09-23T08:59:03.788Z,66.72
2022-09-23T09:04:39.549Z,66.95
2022-09-23T09:09:59.888Z,66.71
2022-09-23T09:15:13.334Z,66.82
2022-09-23T09:20:17.148Z,66.75
2022-09-23T09:25:40.213Z,66.70
2022-09-23T09:30:48.338Z,66.59
2022-09-23T09:36:15.341Z,66.81
2022-09-23T09:41:21.521Z,66.74
2022-09-23T09:46:41.757Z,66.65
2022-09-23T09:51:44.000Z,66.75
2022-09-23T10:02:19.377Z,66.61
2022-09-23T10:07:26.661Z,66.68
2022-09-23T10:12:44.348Z,66.79
2022-09-23T10:17:51.902Z,66.71
2022-09-23T10:22:56.944Z,66.54
2022-09-23T10:27:58.992Z,66.48
2022-09-23T10:33:01.365Z,66.38
2022-09-23T10:38:03.473Z,66.24
2022-09-23T10:43:51.964Z,66.56
2022-09-23T10:48:59.782Z,66.52
2022-09-23T10:54:20.604Z,66.41
2022-09-23T11:00:05.789Z,66.42
2022-09-23T11:05:32.862Z,66.44
2022-09-23T11:11:11.710Z,66.21
2022-09-23T11:16:39.109Z,66.33
2022-09-23T11:21:57.260Z,66.25
2022-09-23T11:27:36.029Z,66.41
2022-09-23T11:33:14.561Z,66.55
2022-09-23T11:38:48.849Z,66.43
2022-09-23T11:44:07.117Z,66.49
2022-09-23T11:49:31.400Z,66.39
2022-09-23T11:54:44.030Z,66.42
2022-09-23T11:59:53.203Z,66.09
2022-09-23T12:05:20.451Z,66.38
2022-09-23T12:10:26.341Z,66.49
2022-09-23T12:15:56.010Z,66.41
2022-09-23T12:21:32.706Z,66.47
2022-09-23T12:26:35.954Z,66.33
2022-09-23T12:31:41.117Z,66.43
2022-09-23T12:36:46.140Z,65.90
2022-09-23T12:41:50.882Z,66.07
2022-09-23T12:47:17.906Z,66.34
2022-09-23T12:52:19.932Z,66.10
2022-09-23T12:57:34.081Z,66.18
2022-09-23T13:03:08.394Z,66.20
2022-09-23T13:08:19.729Z,66.11
2022-09-23T13:13:43.604Z,66.29
2022-09-23T13:18:55.961Z,66.24
2022-09-23T13:24:20.826Z,66.18
2022-09-23T13:29:47.494Z,66.33
2022-09-23T13:35:34.307Z,66.08
2022-09-23T13:40:37.444Z,66.16
2022-09-23T13:45:43.693Z,66.09
2022-09-23T13:50:49.865Z,65.90
2022-09-23T13:56:01.654Z,65.89
2022-09-23T14:01:08.306Z,66.14
2022-09-23T14:06:15.397Z,65.75
2022-09-23T14:11:19.894Z,65.83
2022-09-23T14:16:25.567Z,66.02
2022-09-23T14:21:39.728Z,65.80
2022-09-23T14:26:49.028Z,65.76
2022-09-23T14:31:58.967Z,65.74
2022-09-23T14:37:48.047Z,65.76
2022-09-23T14:42:56.937Z,65.68
2022-09-23T14:48:02.790Z,65.74
2022-09-23T14:53:18.742Z,65.47
2022-09-23T14:58:25.863Z,65.46
2022-09-23T15:03:29.042Z,65.63
2022-09-23T15:08:34.143Z,65.69
2022-09-23T15:13:42.229Z,65.46
2022-09-23T15:18:46.326Z,65.40
2022-09-23T15:23:55.008Z,65.67
2022-09-23T15:28:58.629Z,65.50
2022-09-23T15:34:00.734Z,65.40
2022-09-23T15:39:06.347Z,65.58
2022-09-23T15:44:20.741Z,65.75
2022-09-23T15:49:29.102Z,65.62
2022-09-23T15:54:32.641Z,65.29
2022-09-23T15:59:34.676Z,65.53
2022-09-23T16:04:37.235Z,65.49
2022-09-23T16:09:39.497Z,65.54
2022-09-23T16:14:41.539Z,65.38
2022-09-23T16:19:43.795Z,65.53
2022-09-23T16:24:47.667Z,65.30
2022-09-23T16:29:49.707Z,65.42
2022-09-23T16:34:51.684Z,65.33
2022-09-23T16:39:53.684Z,65.26
2022-09-23T16:44:55.758Z,65.31
2022-09-23T16:49:57.778Z,65.57
2022-09-23T16:54:59.962Z,65.30
2022-09-23T17:00:37.774Z,65.57
2022-09-23T17:05:39.859Z,65.43
2022-09-23T17:10:43.253Z,65.60
2022-09-23T17:15:45.320Z,65.33
2022-09-23T17:21:01.757Z,65.82
2022-09-23T17:26:05.676Z,65.53
2022-09-23T17:31:08.976Z,65.56
2022-09-23T17:36:13.712Z,65.72
2022-09-23T17:41:17.451Z,65.58
2022-09-23T17:46:19.453Z,65.77
2022-09-23T17:51:22.196Z,65.64
2022-09-23T17:56:26.623Z,65.93
2022-09-23T18:01:29.380Z,65.80
2022-09-23T18:06:35.598Z,65.81
2022-09-23T18:11:39.901Z,65.70
2022-09-23T18:16:44.317Z,65.72
2022-09-23T18:21:50.618Z,65.33
2022-09-23T18:26:54.117Z,65.56
2022-09-23T18:31:56.624Z,65.85
2022-09-23T18:36:58.755Z,65.59
2022-09-23T18:42:02.674Z,65.49
2022-09-23T18:47:04.701Z,65.82
2022-09-23T18:52:06.876Z,65.53
2022-09-23T18:57:08.877Z,65.77
2022-09-23T19:02:11.010Z,65.53
2022-09-23T19:07:13.201Z,65.48
2022-09-23T19:12:15.288Z,65.54
2022-09-23T19:17:17.364Z,65.43
2022-09-23T19:22:19.902Z,65.53
2022-09-23T19:27:21.977Z,65.39
2022-09-23T19:32:27.263Z,65.46
2022-09-23T19:42:31.413Z,65.51
2022-09-23T19:47:33.433Z,65.41
2022-09-23T19:52:35.688Z,65.56
2022-09-23T19:57:37.721Z,65.57
2022-09-23T20:02:39.789Z,65.51
2022-09-23T20:07:43.012Z,65.46
2022-09-23T20:12:44.852Z,65.28
2022-09-23T20:17:46.865Z,65.69
2022-09-23T20:22:50.603Z,65.50
2022-09-23T20:27:53.634Z,65.56
2022-09-23T20:32:55.803Z,65.36
2022-09-23T20:37:57.795Z,65.51
2022-09-23T20:42:59.864Z,65.40
2022-09-23T20:48:03.528Z,65.27
2022-09-23T20:53:05.649Z,65.52
2022-09-23T20:58:07.717Z,65.46
2022-09-23T21:03:10.579Z,65.61
2022-09-23T21:08:12.801Z,65.25
2022-09-23T21:13:14.910Z,65.51
2022-09-23T21:18:22.257Z,65.61
2022-09-23T21:23:26.619Z,65.41
2022-09-23T21:28:32.456Z,65.54
2022-09-23T21:33:36.968Z,65.68
2022-09-23T21:38:39.563Z,65.59
2022-09-23T21:43:41.854Z,65.68
2022-09-23T21:48:43.849Z,65.89
2022-09-23T21:53:47.120Z,65.49
2022-09-23T21:58:49.402Z,65.83
2022-09-23T22:04:01.897Z,65.68
2022-09-23T22:09:10.508Z,65.64
2022-09-23T22:14:14.333Z,65.66
2022-09-23T22:19:17.060Z,65.70
2022-09-23T22:24:19.437Z,65.66
2022-09-23T22:29:40.354Z,65.86
2022-09-23T22:34:51.012Z,65.81
2022-09-23T22:39:54.697Z,66.02
2022-09-23T22:44:56.821Z,66.11
2022-09-23T22:49:58.752Z,66.15
2022-09-23T22:55:01.343Z,66.11
2022-09-23T23:00:07.940Z,66.20
2022-09-23T23:05:10.253Z,66.04
2022-09-23T23:10:12.352Z,66.26
2022-09-23T23:15:14.441Z,65.91
2022-09-23T23:20:16.694Z,66.37
2022-09-23T23:25:18.858Z,66.07
2022-09-23T23:30:20.862Z,66.45
2022-09-23T23:35:22.866Z,66.47
2022-09-23T23:40:24.959Z,66.34
2022-09-23T23:45:27.012Z,66.35
2022-09-23T23:50:29.100Z,66.46
2022-09-23T23:55:32.163Z,66.57
